CYXZ

Wawa Airport

Wawa, Ontario, Canada
METAR CYXZ 190000Z 13004KT 8SM -SN OVC019 M04/M04 A2968 RMK SC8 LAST OBS/NEXT 191100 UTC SLP073
Observed Flight Rules
Jan-19 @ 00:00 UTC (4 hours ago) Marginal Visual Flight Rules
Wind Visibility Clouds Conditions
130° at 4 knots 8 miles
  • Overcast at 1,900' AGL
  • Light Snow
Temperatures Readings
Current -4°C / 25°F
Dewpoint -4°C / 25°F
Humidity 100%
Altimeter 29.68" Hg
Pressure 1007.3 hPa
Elevation 287
METAR CYXZ 190000Z 13004KT 8SM -SN OVC019 M04/M04 A2968 RMK SC8 LAST OBS/NEXT 191100 UTC SLP073
Observed Flight Rules
Jan-19 @ 00:00 UTC
(4 hours ago)
MVFR
Wind Visibility
130° at 4 knots 8 miles
Clouds
  • Overcast at 1,900' AGL
Conditions
  • Light Snow
Temperature Dewpoint
-4°C / 25°F -4°C / 25°F
Humidity Altimeter Pressure
100% 29.68" Hg 1007.3 hPa